createdAt,value
2022-10-17T00:01:08.947Z,76.73
2022-10-17T00:03:40.407Z,77.69
2022-10-17T00:06:11.864Z,78.46
2022-10-17T00:08:44.025Z,78.51
2022-10-17T00:11:18.500Z,77.88
2022-10-17T00:13:48.210Z,77.48
2022-10-17T00:16:27.240Z,77.83
2022-10-17T00:18:54.556Z,77.28
2022-10-17T00:21:23.022Z,77.66
2022-10-17T00:23:50.549Z,77.94
2022-10-17T00:26:18.661Z,77.55
2022-10-17T00:28:51.736Z,77.39
2022-10-17T00:31:21.385Z,77.24
2022-10-17T00:33:48.620Z,76.70
2022-10-17T00:36:23.262Z,76.63
2022-10-17T00:38:57.866Z,76.55
2022-10-17T00:41:33.161Z,75.97
2022-10-17T00:44:30.740Z,76.12
2022-10-17T00:47:11.280Z,76.08
2022-10-17T00:49:39.901Z,76.57
2022-10-17T00:52:21.438Z,75.84
2022-10-17T00:55:09.492Z,75.54
2022-10-17T00:57:36.921Z,76.60
2022-10-17T01:00:09.230Z,77.05
2022-10-17T01:02:36.248Z,76.59
2022-10-17T01:05:04.061Z,76.22
2022-10-17T01:07:34.932Z,76.28
2022-10-17T01:10:06.562Z,76.66
2022-10-17T01:13:07.327Z,77.18
2022-10-17T01:15:40.713Z,78.41
2022-10-17T01:18:42.930Z,77.74
2022-10-17T01:21:54.802Z,76.92
2022-10-17T01:24:49.423Z,76.92
2022-10-17T01:27:37.868Z,76.72
2022-10-17T01:30:45.976Z,76.67
2022-10-17T01:33:18.049Z,77.22
2022-10-17T01:36:03.283Z,76.89
2022-10-17T01:38:59.079Z,78.81
2022-10-17T01:41:44.445Z,77.79
2022-10-17T01:44:28.963Z,79.55
2022-10-17T01:47:11.071Z,78.40
2022-10-17T01:49:41.771Z,77.96
2022-10-17T01:52:15.436Z,78.81
2022-10-17T01:55:02.733Z,77.88
2022-10-17T01:57:41.497Z,76.90
2022-10-17T02:00:19.179Z,77.41
2022-10-17T02:02:49.053Z,76.82
2022-10-17T02:05:21.848Z,76.99
2022-10-17T02:07:48.919Z,77.40
2022-10-17T02:10:30.983Z,77.16
2022-10-17T02:13:45.843Z,76.47
2022-10-17T02:16:38.315Z,76.84
2022-10-17T02:19:42.760Z,76.43
2022-10-17T02:22:24.827Z,77.01
2022-10-17T02:25:37.095Z,76.87
2022-10-17T02:28:36.179Z,77.29
2022-10-17T02:31:17.059Z,76.96
2022-10-17T02:34:03.102Z,77.20
2022-10-17T02:36:45.374Z,77.03
2022-10-17T02:39:15.698Z,76.32
2022-10-17T02:41:44.947Z,75.99
2022-10-17T02:44:12.550Z,76.32
2022-10-17T02:46:42.556Z,77.66
2022-10-17T02:49:22.977Z,76.63
2022-10-17T02:52:04.419Z,75.61
2022-10-17T02:54:39.185Z,76.04
2022-10-17T02:57:27.594Z,75.47
2022-10-17T03:00:00.596Z,75.58
2022-10-17T03:02:28.248Z,75.33
2022-10-17T03:04:56.448Z,76.32
2022-10-17T03:07:23.563Z,76.16
2022-10-17T03:09:50.838Z,76.01
2022-10-17T03:12:17.907Z,75.98
2022-10-17T03:14:45.083Z,75.59
2022-10-17T03:17:14.694Z,75.64
2022-10-17T03:19:41.886Z,75.32
2022-10-17T03:22:09.250Z,75.25
2022-10-17T03:24:36.310Z,75.09
2022-10-17T03:27:03.774Z,75.64
2022-10-17T03:29:31.035Z,76.00
2022-10-17T03:31:58.159Z,75.85
2022-10-17T03:34:25.289Z,78.28
2022-10-17T03:36:52.427Z,76.70
2022-10-17T03:39:21.745Z,76.43
2022-10-17T03:41:48.885Z,76.68
2022-10-17T03:44:16.026Z,75.70
2022-10-17T03:46:43.180Z,75.89
2022-10-17T03:49:13.311Z,75.76
2022-10-17T03:51:40.408Z,75.46
2022-10-17T03:54:07.437Z,74.99
2022-10-17T03:56:34.504Z,75.24
2022-10-17T03:59:01.622Z,75.65
2022-10-17T04:01:31.972Z,75.11
2022-10-17T04:04:01.808Z,77.32
2022-10-17T04:06:28.892Z,81.53
2022-10-17T04:08:59.152Z,81.29
2022-10-17T04:11:26.433Z,79.57
2022-10-17T04:14:03.333Z,82.36
2022-10-17T04:16:30.586Z,82.97
2022-10-17T04:18:59.887Z,84.75
2022-10-17T04:21:28.551Z,82.79
2022-10-17T04:24:00.653Z,81.17
2022-10-17T04:26:28.251Z,80.30
2022-10-17T04:28:56.367Z,80.06
2022-10-17T04:31:23.742Z,78.91
2022-10-17T04:33:51.309Z,78.63
2022-10-17T04:36:20.881Z,79.11
2022-10-17T04:38:48.340Z,78.52
2022-10-17T04:41:28.222Z,77.80
2022-10-17T04:43:57.662Z,77.71
2022-10-17T04:46:24.875Z,77.70
2022-10-17T04:48:52.093Z,77.44
2022-10-17T04:51:21.838Z,77.23
2022-10-17T04:53:53.999Z,76.73
2022-10-17T04:56:23.844Z,76.92
2022-10-17T04:58:52.046Z,76.86
2022-10-17T05:01:21.878Z,77.23
2022-10-17T05:03:49.853Z,77.20
2022-10-17T05:06:21.691Z,77.21
2022-10-17T05:08:49.113Z,76.75
2022-10-17T05:11:26.615Z,76.80
2022-10-17T05:14:01.752Z,76.39
2022-10-17T05:16:30.147Z,76.87
2022-10-17T05:18:59.482Z,76.82
2022-10-17T05:21:29.223Z,76.95
2022-10-17T05:23:56.614Z,77.50
2022-10-17T05:26:27.326Z,78.24
2022-10-17T05:28:54.851Z,78.26
2022-10-17T05:31:24.643Z,79.34
2022-10-17T05:33:51.706Z,79.57
2022-10-17T05:36:18.783Z,79.99
2022-10-17T05:38:51.288Z,79.58
2022-10-17T05:41:19.793Z,78.96
2022-10-17T05:43:47.137Z,79.97
2022-10-17T05:46:14.488Z,79.04
2022-10-17T05:48:41.531Z,80.61
2022-10-17T05:51:13.145Z,79.59
2022-10-17T05:53:41.857Z,79.26
2022-10-17T05:56:12.538Z,78.43
2022-10-17T05:58:50.164Z,78.27
2022-10-17T06:01:19.232Z,77.57
2022-10-17T06:03:46.579Z,76.71
2022-10-17T06:06:15.634Z,76.39
2022-10-17T06:08:43.390Z,75.45
2022-10-17T06:11:13.839Z,73.58
2022-10-17T06:13:57.287Z,71.68
2022-10-17T06:16:26.987Z,71.49
2022-10-17T06:18:54.337Z,71.06
2022-10-17T06:21:28.573Z,69.78
2022-10-17T06:23:55.592Z,70.16
2022-10-17T06:26:27.282Z,69.16
2022-10-17T06:28:57.997Z,69.59
2022-10-17T06:31:25.238Z,67.61
2022-10-17T06:33:52.276Z,66.41
2022-10-17T06:36:19.431Z,66.29
2022-10-17T06:38:46.772Z,65.74
2022-10-17T06:41:18.615Z,66.36
2022-10-17T06:43:47.274Z,65.55
2022-10-17T06:46:17.725Z,65.36
2022-10-17T06:48:45.416Z,68.03
2022-10-17T06:51:13.226Z,66.82
2022-10-17T06:53:41.121Z,66.53
2022-10-17T06:56:10.292Z,64.23
2022-10-17T06:58:39.957Z,62.26
2022-10-17T07:01:13.326Z,60.99
2022-10-17T07:03:43.737Z,61.22
2022-10-17T07:06:11.407Z,62.93
2022-10-17T07:08:42.401Z,61.94
2022-10-17T07:11:16.097Z,62.51
2022-10-17T07:13:43.865Z,65.39
2022-10-17T07:16:12.322Z,68.13
2022-10-17T07:18:40.327Z,66.98
2022-10-17T07:21:08.874Z,68.08
2022-10-17T07:23:37.384Z,67.21
2022-10-17T07:26:09.372Z,66.40
2022-10-17T07:28:37.978Z,67.93
2022-10-17T07:31:12.050Z,64.49
2022-10-17T07:33:41.823Z,62.57
2022-10-17T07:36:12.611Z,62.98
2022-10-17T07:38:40.166Z,60.25
2022-10-17T07:41:20.805Z,56.76
2022-10-17T07:43:54.377Z,55.53
2022-10-17T07:46:36.374Z,57.34
2022-10-17T07:49:03.604Z,57.49
2022-10-17T07:51:33.612Z,55.78
2022-10-17T07:54:00.918Z,58.49
2022-10-17T07:56:29.668Z,58.01
2022-10-17T07:59:02.757Z,54.94
2022-10-17T08:01:34.748Z,54.56
2022-10-17T08:04:01.828Z,54.65
2022-10-17T08:06:31.308Z,52.55
2022-10-17T08:08:58.856Z,52.20
2022-10-17T08:11:28.336Z,51.24
2022-10-17T08:13:56.161Z,49.12
2022-10-17T08:16:25.277Z,48.01
2022-10-17T08:18:52.291Z,48.01
2022-10-17T08:21:21.751Z,46.23
2022-10-17T08:23:48.804Z,49.71
2022-10-17T08:26:17.408Z,51.47
2022-10-17T08:28:44.571Z,51.59
2022-10-17T08:31:20.954Z,51.05
2022-10-17T08:33:52.517Z,52.24
2022-10-17T08:36:22.286Z,53.58
2022-10-17T08:38:53.095Z,52.29
2022-10-17T08:41:39.009Z,50.75
2022-10-17T08:44:49.908Z,45.92
2022-10-17T08:47:28.258Z,46.22
2022-10-17T08:50:02.000Z,47.71
2022-10-17T08:53:02.892Z,47.00
2022-10-17T08:55:53.162Z,44.94
2022-10-17T08:58:36.884Z,43.77
2022-10-17T09:01:31.995Z,48.86
2022-10-17T09:04:46.517Z,51.57
2022-10-17T09:07:41.822Z,52.55
2022-10-17T09:10:19.456Z,54.16
2022-10-17T09:13:27.337Z,50.91
2022-10-17T09:16:31.092Z,55.51
2022-10-17T09:19:20.276Z,59.58
2022-10-17T09:22:10.704Z,61.62
2022-10-17T09:24:45.950Z,57.90
2022-10-17T09:27:36.879Z,61.50
2022-10-17T09:30:46.509Z,61.39
2022-10-17T09:33:42.227Z,63.31
2022-10-17T09:36:24.996Z,59.01
2022-10-17T09:39:05.715Z,58.37
2022-10-17T09:41:48.240Z,60.57
2022-10-17T09:44:22.574Z,57.00
2022-10-17T09:47:11.168Z,56.75
2022-10-17T09:49:45.010Z,52.30
2022-10-17T09:52:39.715Z,53.02
2022-10-17T09:55:22.609Z,51.61
2022-10-17T09:57:58.401Z,50.23
2022-10-17T10:00:31.825Z,48.88
2022-10-17T10:03:22.894Z,52.79
2022-10-17T10:06:12.541Z,56.62
2022-10-17T10:08:58.847Z,52.26
2022-10-17T10:12:15.862Z,52.57
2022-10-17T10:14:46.261Z,50.32
2022-10-17T10:17:44.262Z,47.57
2022-10-17T10:20:37.354Z,45.88
2022-10-17T10:23:19.521Z,42.55
2022-10-17T10:25:56.690Z,45.00
2022-10-17T10:28:37.470Z,47.86
2022-10-17T10:31:09.861Z,46.65
2022-10-17T10:33:45.937Z,45.18
2022-10-17T10:36:16.552Z,50.47
2022-10-17T10:39:00.171Z,51.43
2022-10-17T10:41:48.040Z,51.99
2022-10-17T10:44:21.629Z,49.71
2022-10-17T10:46:48.725Z,50.02
2022-10-17T10:49:31.676Z,50.26
2022-10-17T10:52:00.533Z,49.15
2022-10-17T10:54:42.322Z,49.24
2022-10-17T10:57:13.595Z,47.06
2022-10-17T10:59:51.925Z,45.82
2022-10-17T11:02:25.198Z,45.38
2022-10-17T11:05:14.545Z,44.81
2022-10-17T11:07:56.200Z,45.61
2022-10-17T11:10:55.366Z,45.48
2022-10-17T11:13:32.925Z,48.28
2022-10-17T11:16:21.890Z,46.82
2022-10-17T11:19:28.525Z,48.63
2022-10-17T11:22:15.008Z,46.04
2022-10-17T11:24:59.776Z,44.59
2022-10-17T11:27:29.671Z,43.08
2022-10-17T11:29:59.449Z,43.39
2022-10-17T11:32:40.641Z,44.08
2022-10-17T11:35:25.183Z,44.86
2022-10-17T11:38:24.363Z,44.30
2022-10-17T11:40:56.112Z,46.33
2022-10-17T11:43:48.831Z,45.88
2022-10-17T11:46:25.638Z,43.34
2022-10-17T11:49:38.223Z,45.47
2022-10-17T11:52:37.441Z,44.38
2022-10-17T11:55:18.433Z,45.51
2022-10-17T11:58:10.215Z,46.11
2022-10-17T12:00:58.965Z,44.90
2022-10-17T12:04:02.292Z,43.04
2022-10-17T12:07:14.100Z,45.92
2022-10-17T12:10:27.832Z,44.46
2022-10-17T12:12:54.971Z,43.76
2022-10-17T12:15:27.135Z,46.61
2022-10-17T12:18:04.306Z,45.71
2022-10-17T12:20:40.541Z,44.30
2022-10-17T12:23:16.569Z,46.42
2022-10-17T12:26:05.750Z,46.78
2022-10-17T12:28:46.829Z,50.04
2022-10-17T12:31:17.404Z,48.13
2022-10-17T12:34:02.589Z,49.92
2022-10-17T12:36:32.116Z,50.30
2022-10-17T12:39:02.237Z,50.76
2022-10-17T12:41:38.497Z,51.12
2022-10-17T12:44:15.032Z,49.97
2022-10-17T12:47:10.834Z,49.93
2022-10-17T12:49:44.177Z,49.90
2022-10-17T12:52:29.002Z,51.05
2022-10-17T12:55:14.787Z,52.72
2022-10-17T12:58:09.460Z,51.79
2022-10-17T13:01:19.130Z,52.12
2022-10-17T13:03:47.770Z,50.75
2022-10-17T13:06:37.926Z,49.50
2022-10-17T13:09:26.859Z,49.60
2022-10-17T13:11:55.446Z,50.11
2022-10-17T13:14:25.002Z,51.81
2022-10-17T13:17:01.848Z,52.10
2022-10-17T13:19:44.940Z,50.64
2022-10-17T13:22:24.466Z,52.50
2022-10-17T13:25:05.457Z,51.09
2022-10-17T13:27:35.070Z,50.76
2022-10-17T13:30:29.476Z,50.89
2022-10-17T13:33:00.034Z,51.14
2022-10-17T13:38:32.350Z,51.25
2022-10-17T13:41:23.297Z,50.87
2022-10-17T13:43:48.490Z,51.67
2022-10-17T13:46:39.547Z,50.16
2022-10-17T13:49:35.457Z,51.73
2022-10-17T13:52:06.275Z,52.64
2022-10-17T13:54:45.883Z,51.85
2022-10-17T13:57:24.288Z,52.28
2022-10-17T14:00:03.125Z,51.50
2022-10-17T14:02:34.912Z,50.81
2022-10-17T14:05:19.198Z,52.56
2022-10-17T14:08:12.037Z,54.01
2022-10-17T14:10:43.301Z,54.54
2022-10-17T14:13:30.348Z,53.15
2022-10-17T14:16:01.847Z,53.67
2022-10-17T14:18:36.408Z,53.19
2022-10-17T14:24:13.538Z,56.34
2022-10-17T14:26:59.978Z,55.73
2022-10-17T14:29:32.571Z,57.07
2022-10-17T14:32:10.914Z,56.52
2022-10-17T14:34:40.884Z,55.96
2022-10-17T14:37:28.623Z,56.68
2022-10-17T14:39:58.952Z,57.02
2022-10-17T14:42:26.353Z,56.25
2022-10-17T14:44:57.890Z,57.03
2022-10-17T14:47:42.705Z,57.18
2022-10-17T14:50:13.447Z,57.69
2022-10-17T14:52:43.333Z,57.97
2022-10-17T14:55:28.784Z,57.49
2022-10-17T14:57:56.383Z,58.44
2022-10-17T15:00:25.013Z,59.24
2022-10-17T15:02:54.354Z,58.58
2022-10-17T15:05:23.784Z,59.05
2022-10-17T15:07:51.061Z,58.54
2022-10-17T15:10:36.756Z,58.42
2022-10-17T15:13:26.130Z,57.68
2022-10-17T15:15:52.601Z,57.97
2022-10-17T15:18:19.767Z,58.37
2022-10-17T15:20:59.604Z,58.36
2022-10-17T15:23:32.352Z,59.44
2022-10-17T15:25:59.456Z,59.77
2022-10-17T15:28:27.494Z,60.13
2022-10-17T15:30:54.650Z,60.02
2022-10-17T15:33:21.706Z,60.76
2022-10-17T15:35:51.770Z,61.36
2022-10-17T15:38:18.854Z,61.70
2022-10-17T15:40:53.300Z,61.42
2022-10-17T15:43:20.352Z,62.12
2022-10-17T15:45:48.187Z,61.80
2022-10-17T15:48:26.736Z,62.02
2022-10-17T15:50:55.870Z,62.56
2022-10-17T15:53:23.981Z,62.60
2022-10-17T15:55:51.136Z,63.48
2022-10-17T15:58:19.656Z,63.02
2022-10-17T16:00:47.751Z,64.10
2022-10-17T16:03:14.950Z,64.25
2022-10-17T16:05:41.987Z,64.27
2022-10-17T16:08:09.083Z,64.83
2022-10-17T16:10:40.880Z,64.38
2022-10-17T16:13:28.997Z,65.02
2022-10-17T16:15:56.040Z,64.65
2022-10-17T16:18:23.092Z,64.62
2022-10-17T16:20:52.609Z,63.67
2022-10-17T16:23:19.689Z,63.88
2022-10-17T16:25:46.810Z,63.83
2022-10-17T16:28:13.867Z,64.21
2022-10-17T16:30:44.934Z,64.92
2022-10-17T16:33:12.796Z,64.33
2022-10-17T16:35:42.387Z,64.99
2022-10-17T16:38:09.479Z,66.08
2022-10-17T16:40:39.302Z,66.72
2022-10-17T16:43:07.678Z,66.67
2022-10-17T16:45:36.113Z,66.12
2022-10-17T16:48:03.494Z,66.91
2022-10-17T16:50:35.313Z,65.46
2022-10-17T16:53:03.993Z,64.68
2022-10-17T16:55:31.023Z,65.68
2022-10-17T16:57:59.970Z,64.51
2022-10-17T17:00:29.379Z,64.94
2022-10-17T17:02:58.771Z,64.57
2022-10-17T17:05:25.839Z,66.29
2022-10-17T17:07:53.167Z,65.20
2022-10-17T17:10:22.648Z,64.77
2022-10-17T17:12:49.653Z,64.65
2022-10-17T17:15:16.688Z,64.58
2022-10-17T17:17:50.586Z,64.49
2022-10-17T17:20:20.569Z,64.47
2022-10-17T17:22:50.880Z,64.57
2022-10-17T17:25:17.953Z,65.44
2022-10-17T17:27:44.935Z,64.84
2022-10-17T17:30:12.324Z,65.85
2022-10-17T17:32:42.164Z,65.54
2022-10-17T17:35:09.841Z,66.02
2022-10-17T17:37:37.113Z,66.10
2022-10-17T17:40:06.177Z,65.60
2022-10-17T17:42:35.558Z,66.20
2022-10-17T17:45:03.251Z,65.72
2022-10-17T17:47:30.580Z,65.28
2022-10-17T17:49:57.862Z,66.18
2022-10-17T17:52:25.209Z,66.51
2022-10-17T17:54:52.238Z,66.09
2022-10-17T17:57:19.358Z,65.07
2022-10-17T17:59:49.862Z,64.85
2022-10-17T18:02:17.335Z,65.34
2022-10-17T18:04:46.427Z,66.06
2022-10-17T18:07:13.454Z,64.98
2022-10-17T18:09:40.471Z,66.40
2022-10-17T18:12:09.944Z,65.66
2022-10-17T18:14:36.942Z,65.62
2022-10-17T18:17:03.999Z,65.56
2022-10-17T18:19:31.158Z,66.80
2022-10-17T18:22:00.708Z,66.05
2022-10-17T18:24:27.926Z,65.82
2022-10-17T18:26:59.681Z,66.11
2022-10-17T18:29:27.680Z,65.58
2022-10-17T18:31:57.226Z,65.28
2022-10-17T18:34:24.734Z,65.37
2022-10-17T18:36:52.965Z,67.02
2022-10-17T18:39:20.565Z,67.60
2022-10-17T18:41:47.614Z,67.46
2022-10-17T18:44:15.673Z,68.52
2022-10-17T18:46:43.200Z,68.20
2022-10-17T18:49:15.935Z,69.23
2022-10-17T18:51:45.489Z,69.66
2022-10-17T18:54:20.669Z,70.27
2022-10-17T18:56:53.966Z,69.45
2022-10-17T18:59:23.827Z,69.12
2022-10-17T19:01:51.097Z,68.65
2022-10-17T19:04:20.793Z,68.89
2022-10-17T19:06:47.917Z,68.32
2022-10-17T19:09:15.968Z,67.56
2022-10-17T19:11:43.540Z,67.23
2022-10-17T19:14:13.497Z,67.19
2022-10-17T19:16:51.739Z,67.45
2022-10-17T19:19:23.213Z,67.07
2022-10-17T19:21:51.326Z,67.22
2022-10-17T19:24:25.041Z,67.20
2022-10-17T19:26:58.320Z,67.38
2022-10-17T19:29:28.678Z,67.31
2022-10-17T19:34:22.768Z,69.19
2022-10-17T19:36:49.918Z,69.53
2022-10-17T19:39:26.623Z,69.46
2022-10-17T19:41:53.771Z,69.81
2022-10-17T19:44:20.994Z,70.08
2022-10-17T19:46:50.538Z,69.89
2022-10-17T19:49:20.269Z,71.80
2022-10-17T19:51:47.423Z,71.44
2022-10-17T19:54:18.271Z,71.45
2022-10-17T19:56:45.369Z,72.06
2022-10-17T19:59:17.022Z,71.78
2022-10-17T20:01:45.086Z,72.69
2022-10-17T20:04:13.043Z,71.18
2022-10-17T20:06:41.215Z,71.66
2022-10-17T20:09:13.953Z,71.65
2022-10-17T20:11:49.232Z,70.96
2022-10-17T20:14:18.475Z,72.53
2022-10-17T20:16:50.143Z,72.15
2022-10-17T20:19:19.129Z,72.48
2022-10-17T20:21:46.340Z,72.61
2022-10-17T20:24:17.067Z,72.81
2022-10-17T20:27:04.430Z,73.31
2022-10-17T20:29:31.665Z,72.96
2022-10-17T20:31:59.022Z,73.10
2022-10-17T20:34:26.157Z,73.12
2022-10-17T20:36:55.518Z,74.25
2022-10-17T20:39:23.469Z,73.31
2022-10-17T20:41:50.541Z,72.13
2022-10-17T20:44:17.764Z,71.88
2022-10-17T20:46:57.628Z,72.13
2022-10-17T20:49:28.712Z,71.90
2022-10-17T20:51:56.091Z,71.79
2022-10-17T20:54:23.257Z,71.60
2022-10-17T20:56:50.413Z,73.29
2022-10-17T20:59:18.278Z,73.69
2022-10-17T21:01:46.231Z,72.91
2022-10-17T21:07:01.581Z,73.64
2022-10-17T21:09:28.702Z,73.77
2022-10-17T21:11:58.123Z,73.44
2022-10-17T21:14:28.676Z,73.21
2022-10-17T21:16:55.804Z,73.49
2022-10-17T21:19:22.915Z,73.31
2022-10-17T21:21:50.782Z,73.22
2022-10-17T21:24:20.562Z,73.64
2022-10-17T21:26:55.296Z,73.20
2022-10-17T21:29:23.842Z,73.80
2022-10-17T21:31:51.460Z,73.93
2022-10-17T21:34:23.917Z,73.24
2022-10-17T21:36:53.912Z,72.62
2022-10-17T21:39:25.968Z,72.77
2022-10-17T21:41:55.281Z,72.33
2022-10-17T21:44:25.364Z,72.87
2022-10-17T21:46:53.637Z,72.21
2022-10-17T21:49:25.384Z,71.88
2022-10-17T21:51:53.275Z,73.20
2022-10-17T21:54:23.074Z,73.49
2022-10-17T21:56:51.219Z,73.74
2022-10-17T21:59:18.512Z,74.14
2022-10-17T22:01:48.445Z,73.61
2022-10-17T22:04:19.182Z,72.92
2022-10-17T22:06:51.141Z,73.39
2022-10-17T22:09:26.524Z,73.01
2022-10-17T22:11:57.869Z,72.88
2022-10-17T22:14:28.338Z,72.88
2022-10-17T22:16:56.263Z,72.96
2022-10-17T22:19:28.391Z,73.02
2022-10-17T22:21:55.450Z,74.17
2022-10-17T22:24:25.443Z,74.85
2022-10-17T22:26:52.750Z,73.56
2022-10-17T22:29:22.003Z,73.97
2022-10-17T22:31:49.311Z,73.65
2022-10-17T22:34:18.030Z,72.69
2022-10-17T22:36:49.037Z,73.54
2022-10-17T22:39:16.455Z,74.00
2022-10-17T22:41:46.021Z,74.02
2022-10-17T22:44:13.230Z,73.57
2022-10-17T22:46:43.014Z,73.80
2022-10-17T22:49:12.483Z,73.11
2022-10-17T22:51:39.665Z,73.39
2022-10-17T22:54:06.881Z,73.80
2022-10-17T22:56:33.960Z,73.73
2022-10-17T22:59:01.019Z,73.72
2022-10-17T23:01:28.140Z,74.94
2022-10-17T23:03:57.585Z,74.17
2022-10-17T23:06:24.879Z,73.35
2022-10-17T23:08:52.448Z,73.11
2022-10-17T23:11:21.033Z,74.01
2022-10-17T23:13:48.669Z,73.56
2022-10-17T23:16:16.110Z,73.44
2022-10-17T23:18:44.222Z,73.55
2022-10-17T23:21:14.334Z,74.23
2022-10-17T23:23:41.440Z,73.80
2022-10-17T23:26:16.548Z,73.59
2022-10-17T23:28:43.938Z,73.65
2022-10-17T23:31:22.358Z,73.43
2022-10-17T23:33:50.311Z,74.24
2022-10-17T23:36:23.069Z,73.24
2022-10-17T23:38:52.650Z,72.97
2022-10-17T23:41:22.149Z,72.77
2022-10-17T23:43:49.234Z,73.96
2022-10-17T23:46:16.296Z,73.48
2022-10-17T23:48:46.011Z,74.96
2022-10-17T23:51:13.347Z,73.46
2022-10-17T23:53:41.244Z,73.51
2022-10-17T23:56:10.383Z,72.40
2022-10-17T23:58:42.904Z,71.58
